createdAt,value
2018-06-15T00:00:22.876Z,17.32
2018-06-15T00:01:26.498Z,15.65
2018-06-15T00:02:31.526Z,14.90
2018-06-15T00:03:35.248Z,15.48
2018-06-15T00:04:38.929Z,15.15
2018-06-15T00:05:42.571Z,14.47
2018-06-15T00:06:46.211Z,14.58
2018-06-15T00:07:49.774Z,15.15
2018-06-15T00:08:53.356Z,14.85
2018-06-15T00:09:57.495Z,14.85
2018-06-15T00:11:01.296Z,14.13
2018-06-15T00:12:05.050Z,15.10
2018-06-15T00:13:08.662Z,14.28
2018-06-15T00:14:12.309Z,13.60
2018-06-15T00:15:16.039Z,14.60
2018-06-15T00:16:19.783Z,14.10
2018-06-15T00:17:23.406Z,14.90
2018-06-15T00:18:27.024Z,14.93
2018-06-15T00:19:30.605Z,14.85
2018-06-15T00:20:34.254Z,15.43
2018-06-15T00:21:37.551Z,15.95
2018-06-15T00:22:41.177Z,15.13
2018-06-15T00:23:44.805Z,15.38
2018-06-15T00:24:48.474Z,15.63
2018-06-15T00:25:52.118Z,15.38
2018-06-15T00:26:55.716Z,15.72
2018-06-15T00:27:59.317Z,16.02
2018-06-15T00:29:03.000Z,16.12
2018-06-15T00:30:07.813Z,16.32
2018-06-15T00:31:11.415Z,14.93
2018-06-15T00:32:14.984Z,16.65
2018-06-15T00:33:18.323Z,15.75
2018-06-15T00:34:21.906Z,14.70
2018-06-15T00:35:25.492Z,16.90
2018-06-15T00:36:29.093Z,15.50
2018-06-15T00:37:32.755Z,16.12
2018-06-15T00:38:36.428Z,16.30
2018-06-15T00:39:39.680Z,16.10
2018-06-15T00:40:43.348Z,16.25
2018-06-15T00:41:46.937Z,15.72
2018-06-15T00:42:50.560Z,16.25
2018-06-15T00:44:00.617Z,16.48
2018-06-15T00:45:04.287Z,16.00
2018-06-15T00:46:07.864Z,16.30
2018-06-15T00:47:11.540Z,15.48
2018-06-15T00:48:15.127Z,15.98
2018-06-15T00:49:18.774Z,17.35
2018-06-15T00:50:22.355Z,16.07
2018-06-15T00:51:26.036Z,16.50
2018-06-15T00:52:29.713Z,16.00
2018-06-15T00:53:33.380Z,15.48
2018-06-15T00:54:37.005Z,15.80
2018-06-15T00:55:40.689Z,18.15
2018-06-15T00:56:55.453Z,15.32
2018-06-15T00:57:59.081Z,15.43
2018-06-15T00:59:02.827Z,15.43
2018-06-15T01:00:06.497Z,16.23
2018-06-15T01:01:10.140Z,15.48
2018-06-15T01:02:13.701Z,15.83
2018-06-15T01:03:17.337Z,16.35
2018-06-15T01:04:20.960Z,14.33
2018-06-15T01:05:24.576Z,15.90
2018-06-15T01:06:28.226Z,15.90
2018-06-15T01:07:31.487Z,16.35
2018-06-15T01:08:35.153Z,16.45
2018-06-15T01:09:38.786Z,15.72
2018-06-15T01:10:42.351Z,15.72
2018-06-15T01:11:46.009Z,14.68
2018-06-15T01:12:49.685Z,16.42
2018-06-15T01:13:53.331Z,15.45
2018-06-15T01:14:56.918Z,15.80
2018-06-15T01:16:00.511Z,15.98
2018-06-15T01:17:04.335Z,17.23
2018-06-15T01:18:07.941Z,15.13
2018-06-15T01:19:11.617Z,14.73
2018-06-15T01:20:15.249Z,16.73
2018-06-15T01:21:18.837Z,16.23
2018-06-15T01:22:22.429Z,16.85
2018-06-15T01:23:26.072Z,17.27
2018-06-15T01:24:29.703Z,16.07
2018-06-15T01:25:33.336Z,16.50
2018-06-15T01:26:36.966Z,15.83
2018-06-15T01:27:40.570Z,17.40
2018-06-15T01:28:44.203Z,16.93
2018-06-15T01:29:47.879Z,16.80
2018-06-15T01:30:51.515Z,17.10
2018-06-15T01:31:55.162Z,17.05
2018-06-15T01:32:58.743Z,17.10
2018-06-15T01:34:02.427Z,16.97
2018-06-15T01:35:06.123Z,16.25
2018-06-15T01:36:09.772Z,17.07
2018-06-15T01:37:13.420Z,15.32
2018-06-15T01:38:17.045Z,16.82
2018-06-15T01:39:20.696Z,15.20
2018-06-15T01:40:24.494Z,17.42
2018-06-15T01:41:28.171Z,18.00
2018-06-15T01:42:34.679Z,16.87
2018-06-15T01:43:38.355Z,17.80
2018-06-15T01:44:41.967Z,15.72
2018-06-15T01:45:45.602Z,16.23
2018-06-15T01:46:49.253Z,17.15
2018-06-15T01:47:52.976Z,16.85
2018-06-15T01:48:56.645Z,16.15
2018-06-15T01:50:00.288Z,15.03
2018-06-15T01:51:04.041Z,16.80
2018-06-15T01:52:07.684Z,17.27
2018-06-15T01:53:11.268Z,16.37
2018-06-15T01:54:14.928Z,16.42
2018-06-15T01:55:18.235Z,16.42
2018-06-15T01:56:21.865Z,16.25
2018-06-15T01:57:25.487Z,18.05
2018-06-15T01:58:29.068Z,16.60
2018-06-15T01:59:32.726Z,16.20
2018-06-15T02:00:36.340Z,15.88
2018-06-15T02:01:39.973Z,16.70
2018-06-15T02:02:43.620Z,17.50
2018-06-15T02:03:47.302Z,17.85
2018-06-15T02:04:50.946Z,16.60
2018-06-15T02:05:54.601Z,16.27
2018-06-15T02:06:58.240Z,16.40
2018-06-15T02:08:01.569Z,17.07
2018-06-15T02:09:07.326Z,15.05
2018-06-15T02:10:11.098Z,15.65
2018-06-15T02:11:14.764Z,15.83
2018-06-15T02:12:18.428Z,15.93
2018-06-15T02:13:22.044Z,15.88
2018-06-15T02:14:25.668Z,15.65
2018-06-15T02:15:29.279Z,15.30
2018-06-15T02:16:33.047Z,14.83
2018-06-15T02:17:36.609Z,16.00
2018-06-15T02:18:39.910Z,17.30
2018-06-15T02:19:43.536Z,17.48
2018-06-15T02:20:47.186Z,16.40
2018-06-15T02:21:50.957Z,17.60
2018-06-15T02:22:54.240Z,16.65
2018-06-15T02:23:57.882Z,16.23
2018-06-15T02:25:01.532Z,18.05
2018-06-15T02:26:04.882Z,16.37
2018-06-15T02:27:08.487Z,15.35
2018-06-15T02:28:12.271Z,15.40
2018-06-15T02:29:18.647Z,15.20
2018-06-15T02:30:22.231Z,16.07
2018-06-15T02:31:25.511Z,16.40
2018-06-15T02:32:29.167Z,15.98
2018-06-15T02:33:32.779Z,16.75
2018-06-15T02:34:36.408Z,15.80
2018-06-15T02:35:40.020Z,14.90
2018-06-15T02:36:43.621Z,16.40
2018-06-15T02:37:47.329Z,17.05
2018-06-15T02:38:50.940Z,17.70
2018-06-15T02:39:54.582Z,18.73
2018-06-15T02:40:58.210Z,17.37
2018-06-15T02:42:01.841Z,18.27
2018-06-15T02:43:05.645Z,18.10
2018-06-15T02:44:09.331Z,17.40
2018-06-15T02:45:12.578Z,17.67
2018-06-15T02:46:16.204Z,16.30
2018-06-15T02:47:19.821Z,17.23
2018-06-15T02:48:23.521Z,17.73
2018-06-15T02:49:27.171Z,17.17
2018-06-15T02:50:30.767Z,19.50
2018-06-15T02:51:34.499Z,18.98
2018-06-15T02:52:38.123Z,18.20
2018-06-15T02:53:41.733Z,17.95
2018-06-15T02:54:45.399Z,17.92
2018-06-15T02:55:49.083Z,19.70
2018-06-15T02:56:52.772Z,18.80
2018-06-15T02:57:56.339Z,20.12
2018-06-15T02:59:00.001Z,18.45
2018-06-15T03:00:03.635Z,19.12
2018-06-15T03:01:07.496Z,20.77
2018-06-15T03:02:10.776Z,20.90
2018-06-15T03:03:14.336Z,19.90
2018-06-15T03:04:17.903Z,20.97
2018-06-15T03:05:21.500Z,19.67
2018-06-15T03:06:25.419Z,19.60
2018-06-15T03:07:29.038Z,20.43
2018-06-15T03:08:32.625Z,21.30
2018-06-15T03:09:36.306Z,21.27
2018-06-15T03:10:39.952Z,22.15
2018-06-15T03:11:43.864Z,23.00
2018-06-15T03:12:47.515Z,20.70
2018-06-15T03:13:50.742Z,22.90
2018-06-15T03:14:54.368Z,23.22
2018-06-15T03:15:57.951Z,22.98
2018-06-15T03:17:01.615Z,23.83
2018-06-15T03:18:05.253Z,22.75
2018-06-15T03:19:08.997Z,24.80
2018-06-15T03:20:12.598Z,23.35
2018-06-15T03:21:16.196Z,23.85
2018-06-15T03:22:19.875Z,24.25
2018-06-15T03:23:23.485Z,23.62
2018-06-15T03:24:27.094Z,25.35
2018-06-15T03:25:30.363Z,24.23
2018-06-15T03:26:33.946Z,25.15
2018-06-15T03:27:37.627Z,22.75
2018-06-15T03:28:41.311Z,23.07
2018-06-15T03:29:44.889Z,24.20
2018-06-15T03:30:48.532Z,22.85
2018-06-15T03:31:52.179Z,23.18
2018-06-15T03:32:55.847Z,23.77
2018-06-15T03:33:59.575Z,24.05
2018-06-15T03:35:03.165Z,24.60
2018-06-15T03:36:06.798Z,24.30
2018-06-15T03:37:10.754Z,23.70
2018-06-15T03:38:14.335Z,23.12
2018-06-15T03:39:18.000Z,24.27
2018-06-15T03:40:21.312Z,25.12
2018-06-15T03:41:24.967Z,24.98
2018-06-15T03:42:28.558Z,25.65
2018-06-15T03:43:31.998Z,24.05
2018-06-15T03:44:35.691Z,23.90
2018-06-15T03:45:39.330Z,27.15
2018-06-15T03:46:42.907Z,24.50
2018-06-15T03:47:46.545Z,25.27
2018-06-15T03:48:50.115Z,27.25
2018-06-15T03:49:53.431Z,24.00
2018-06-15T03:50:57.039Z,23.77
2018-06-15T03:52:00.706Z,23.32
2018-06-15T03:53:04.443Z,23.47
2018-06-15T03:54:08.133Z,24.10
2018-06-15T03:55:12.247Z,24.47
2018-06-15T03:56:15.920Z,25.68
2018-06-15T03:57:19.518Z,24.60
2018-06-15T03:58:23.086Z,25.12
2018-06-15T03:59:26.670Z,23.90
2018-06-15T04:00:30.321Z,24.60
2018-06-15T04:01:33.898Z,23.27
2018-06-15T04:02:37.532Z,24.07
2018-06-15T04:03:41.196Z,21.75
2018-06-15T04:04:44.818Z,23.25
2018-06-15T04:05:48.476Z,22.85
2018-06-15T04:06:52.166Z,23.62
2018-06-15T04:07:55.442Z,22.40
2018-06-15T04:08:59.021Z,23.45
2018-06-15T04:10:02.624Z,23.87
2018-06-15T04:11:06.283Z,22.40
2018-06-15T04:12:10.066Z,22.40
2018-06-15T04:13:13.883Z,24.30
2018-06-15T04:14:17.451Z,22.10
2018-06-15T04:15:21.053Z,22.65
2018-06-15T04:16:24.686Z,22.67
2018-06-15T04:17:28.342Z,22.90
2018-06-15T04:18:31.970Z,25.00
2018-06-15T04:19:35.618Z,21.57
2018-06-15T04:20:39.775Z,23.40
2018-06-15T04:21:43.445Z,24.00
2018-06-15T04:22:47.055Z,23.75
2018-06-15T04:23:50.637Z,22.93
2018-06-15T04:24:54.248Z,23.67
2018-06-15T04:25:57.908Z,23.02
2018-06-15T04:27:01.531Z,22.82
2018-06-15T04:28:05.201Z,21.70
2018-06-15T04:29:08.788Z,22.85
2018-06-15T04:30:12.510Z,23.65
2018-06-15T04:31:16.204Z,22.05
2018-06-15T04:32:19.867Z,23.00
2018-06-15T04:33:23.486Z,21.93
2018-06-15T04:34:26.741Z,22.90
2018-06-15T04:35:30.345Z,22.42
2018-06-15T04:36:33.989Z,23.18
2018-06-15T04:37:37.605Z,23.47
2018-06-15T04:38:41.184Z,23.90
2018-06-15T04:39:44.769Z,23.83
2018-06-15T04:40:48.388Z,23.50
2018-06-15T04:41:52.190Z,23.25
2018-06-15T04:42:55.773Z,24.25
2018-06-15T04:43:59.389Z,22.90
2018-06-15T04:45:02.639Z,25.32
2018-06-15T04:46:06.256Z,25.23
2018-06-15T04:47:09.913Z,22.75
2018-06-15T04:48:13.579Z,23.42
2018-06-15T04:49:17.199Z,23.05
2018-06-15T04:50:20.820Z,25.77
2018-06-15T04:51:24.472Z,25.52
2018-06-15T04:52:28.106Z,23.87
2018-06-15T04:53:31.810Z,22.32
2018-06-15T04:54:35.446Z,23.05
2018-06-15T04:55:39.041Z,25.85
2018-06-15T04:56:42.726Z,25.70
2018-06-15T04:57:46.332Z,23.05
2018-06-15T04:58:49.967Z,23.22
2018-06-15T04:59:53.588Z,26.05
2018-06-15T05:00:57.239Z,25.65
2018-06-15T05:02:00.821Z,25.90
2018-06-15T05:03:04.437Z,26.15
2018-06-15T05:04:07.736Z,26.93
2018-06-15T05:05:11.362Z,26.93
2018-06-15T05:06:15.152Z,26.40
2018-06-15T05:07:18.725Z,26.73
2018-06-15T05:08:22.368Z,26.48
2018-06-15T05:09:26.013Z,26.17
2018-06-15T05:10:29.626Z,27.20
2018-06-15T05:11:33.234Z,29.87
2018-06-15T05:12:36.892Z,29.15
2018-06-15T05:13:40.726Z,30.35
2018-06-15T05:14:44.426Z,29.52
2018-06-15T05:15:48.095Z,32.50
2018-06-15T05:16:51.693Z,29.95
2018-06-15T05:17:55.361Z,31.77
2018-06-15T05:18:58.976Z,31.68
2018-06-15T05:20:02.567Z,31.15
2018-06-15T05:21:06.193Z,34.43
2018-06-15T05:22:09.654Z,33.98
2018-06-15T05:23:13.361Z,32.53
2018-06-15T05:24:17.038Z,33.10
2018-06-15T05:25:20.663Z,34.53
2018-06-15T05:26:23.993Z,33.90
2018-06-15T05:27:27.783Z,34.45
2018-06-15T05:28:31.511Z,33.42
2018-06-15T05:29:35.145Z,35.55
2018-06-15T05:30:38.427Z,37.30
2018-06-15T05:31:42.078Z,37.85
2018-06-15T05:32:47.103Z,38.90
2018-06-15T05:33:50.408Z,35.50
2018-06-15T05:34:53.670Z,39.25
2018-06-15T05:35:57.586Z,35.75
2018-06-15T05:37:00.923Z,37.75
2018-06-15T05:38:04.206Z,37.10
2018-06-15T05:39:07.956Z,36.70
2018-06-15T05:40:11.222Z,35.15
2018-06-15T05:41:14.489Z,36.20
2018-06-15T05:42:17.787Z,34.80
2018-06-15T05:43:21.025Z,36.63
2018-06-15T05:44:24.437Z,35.70
2018-06-15T05:45:27.728Z,33.90
2018-06-15T05:46:30.995Z,32.75
2018-06-15T05:47:34.293Z,31.77
2018-06-15T05:48:37.589Z,33.25
2018-06-15T05:49:40.885Z,31.82
2018-06-15T05:50:44.208Z,33.08
2018-06-15T05:51:47.490Z,32.45
2018-06-15T05:52:50.835Z,31.77
2018-06-15T05:53:54.131Z,33.42
2018-06-15T05:54:57.389Z,32.40
2018-06-15T05:56:00.700Z,32.38
2018-06-15T05:57:03.992Z,33.10
2018-06-15T05:58:07.251Z,34.18
2018-06-15T05:59:10.535Z,32.65
2018-06-15T06:00:13.796Z,32.45
2018-06-15T06:01:17.362Z,31.82
2018-06-15T06:02:20.664Z,30.60
2018-06-15T06:03:23.966Z,32.63
2018-06-15T06:04:27.210Z,31.57
2018-06-15T06:05:30.518Z,32.08
2018-06-15T06:06:33.814Z,32.55
2018-06-15T06:07:37.075Z,31.80
2018-06-15T06:08:40.354Z,32.08
2018-06-15T06:09:43.680Z,33.20
2018-06-15T06:10:47.429Z,31.82
2018-06-15T06:11:50.683Z,31.40
2018-06-15T06:12:53.981Z,31.30
2018-06-15T06:13:57.257Z,29.25
2018-06-15T06:15:00.532Z,31.60
2018-06-15T06:16:03.831Z,31.12
2018-06-15T06:17:07.141Z,30.60
2018-06-15T06:18:10.444Z,30.92
2018-06-15T06:19:13.738Z,30.75
2018-06-15T06:20:17.030Z,31.17
2018-06-15T06:21:20.491Z,31.95
2018-06-15T06:22:23.759Z,30.17
2018-06-15T06:23:27.000Z,30.75
2018-06-15T06:24:30.252Z,29.60
2018-06-15T06:25:33.555Z,29.98
2018-06-15T06:26:36.871Z,29.48
2018-06-15T06:27:40.150Z,29.55
2018-06-15T06:28:43.445Z,31.48
2018-06-15T06:29:46.753Z,29.12
2018-06-15T06:30:50.003Z,26.33
2018-06-15T06:31:53.330Z,27.75
2018-06-15T06:32:56.737Z,27.48
2018-06-15T06:34:00.109Z,27.65
2018-06-15T06:35:03.402Z,28.05
2018-06-15T06:36:06.693Z,29.05
2018-06-15T06:37:10.041Z,28.92
2018-06-15T06:38:13.441Z,29.12
2018-06-15T06:39:16.787Z,29.67
2018-06-15T06:40:20.047Z,30.48
2018-06-15T06:41:23.340Z,28.70
2018-06-15T06:42:26.705Z,29.30
2018-06-15T06:43:30.100Z,29.75
2018-06-15T06:44:33.398Z,29.42
2018-06-15T06:45:36.674Z,30.43
2018-06-15T06:46:39.953Z,31.65
2018-06-15T06:47:43.699Z,30.57
2018-06-15T06:48:47.002Z,33.40
2018-06-15T06:49:50.263Z,32.40
2018-06-15T06:50:53.508Z,29.60
2018-06-15T06:51:56.768Z,30.02
2018-06-15T06:53:00.345Z,29.42
2018-06-15T06:54:03.598Z,28.27
2018-06-15T06:55:06.910Z,27.98
2018-06-15T06:56:10.187Z,25.82
2018-06-15T06:57:13.474Z,25.68
2018-06-15T06:58:16.774Z,29.60
2018-06-15T06:59:20.158Z,28.60
2018-06-15T07:00:23.412Z,27.35
2018-06-15T07:01:26.729Z,25.80
2018-06-15T07:02:29.979Z,27.30
2018-06-15T07:03:33.276Z,23.95
2018-06-15T07:04:36.552Z,25.02
2018-06-15T07:05:39.875Z,24.40
2018-06-15T07:06:43.236Z,27.10
2018-06-15T07:07:46.719Z,26.75
2018-06-15T07:08:49.983Z,23.25
2018-06-15T07:09:53.279Z,23.10
2018-06-15T07:10:56.611Z,25.05
2018-06-15T07:11:59.868Z,25.68
2018-06-15T07:13:03.161Z,25.95
2018-06-15T07:14:06.522Z,23.45
2018-06-15T07:15:09.811Z,24.37
2018-06-15T07:16:13.102Z,23.98
2018-06-15T07:17:16.392Z,21.65
2018-06-15T07:18:19.798Z,21.97
2018-06-15T07:19:23.069Z,20.75
2018-06-15T07:20:26.354Z,18.30
2018-06-15T07:21:29.639Z,17.17
2018-06-15T07:22:32.919Z,18.00
2018-06-15T07:23:36.253Z,18.32
2018-06-15T07:24:39.512Z,18.77
2018-06-15T07:25:42.765Z,20.02
2018-06-15T07:27:55.687Z,18.20
2018-06-15T07:28:59.005Z,17.70
2018-06-15T07:30:02.252Z,18.05
2018-06-15T07:31:05.567Z,13.45
2018-06-15T07:32:09.065Z,10.03
2018-06-15T07:33:12.317Z,10.45
2018-06-15T07:34:15.627Z,9.70
2018-06-15T07:35:18.905Z,11.12
2018-06-15T07:36:22.298Z,12.65
2018-06-15T07:37:25.638Z,12.28
2018-06-15T07:38:29.108Z,12.33
2018-06-15T07:39:32.390Z,12.25
2018-06-15T07:40:35.647Z,11.40
2018-06-15T07:41:38.933Z,10.43
2018-06-15T07:42:42.265Z,9.80
2018-06-15T07:43:45.558Z,8.90
2018-06-15T07:44:48.852Z,7.85
2018-06-15T07:45:52.215Z,7.37
2018-06-15T07:46:55.459Z,7.85
2018-06-15T07:47:58.902Z,7.87
2018-06-15T07:49:02.173Z,7.42
2018-06-15T07:50:05.538Z,7.58
2018-06-15T07:51:08.852Z,6.80
2018-06-15T07:52:12.125Z,6.80
2018-06-15T07:53:15.447Z,6.62
2018-06-15T07:54:18.711Z,7.42
2018-06-15T07:55:22.012Z,8.60
2018-06-15T07:56:25.491Z,7.03
2018-06-15T07:57:28.832Z,6.97
2018-06-15T07:58:32.123Z,7.35
2018-06-15T07:59:35.549Z,8.00
2018-06-15T08:00:38.780Z,7.60
2018-06-15T08:01:42.053Z,7.80
2018-06-15T08:02:45.339Z,7.85
2018-06-15T08:03:53.994Z,7.40
2018-06-15T08:04:57.328Z,8.13
2018-06-15T08:06:00.632Z,8.05
2018-06-15T08:07:03.917Z,8.53
2018-06-15T08:08:07.159Z,7.87
2018-06-15T08:09:10.660Z,9.08
2018-06-15T08:10:14.032Z,9.13
2018-06-15T08:11:17.312Z,9.23
2018-06-15T08:12:20.669Z,7.12
2018-06-15T08:13:23.992Z,7.90
2018-06-15T08:14:27.293Z,7.33
2018-06-15T08:15:30.579Z,8.00
2018-06-15T08:16:33.988Z,6.37
2018-06-15T08:17:37.506Z,6.87
2018-06-15T08:18:41.120Z,6.10
2018-06-15T08:19:44.459Z,6.80
2018-06-15T08:20:47.775Z,7.05
2018-06-15T08:21:51.145Z,6.37
2018-06-15T08:22:54.549Z,6.30
2018-06-15T08:23:57.909Z,6.05
2018-06-15T08:25:01.312Z,6.37
2018-06-15T08:26:04.756Z,6.58
2018-06-15T08:27:08.162Z,6.22
2018-06-15T08:28:11.636Z,6.00
2018-06-15T08:29:15.029Z,5.60
2018-06-15T08:30:18.447Z,6.50
2018-06-15T08:31:21.758Z,5.83
2018-06-15T08:32:25.152Z,6.67
2018-06-15T08:33:28.511Z,6.10
2018-06-15T08:34:31.896Z,6.92
2018-06-15T08:35:35.326Z,7.50
2018-06-15T08:36:38.649Z,6.03
2018-06-15T08:37:42.014Z,6.80
2018-06-15T08:38:45.380Z,7.42
2018-06-15T08:39:48.695Z,7.92
2018-06-15T08:40:52.075Z,8.20
2018-06-15T08:41:55.386Z,7.28
2018-06-15T08:42:58.706Z,8.78
2018-06-15T08:44:01.944Z,6.97
2018-06-15T08:45:05.397Z,7.30
2018-06-15T08:46:08.725Z,7.92
2018-06-15T08:47:12.013Z,7.45
2018-06-15T08:48:15.274Z,9.13
2018-06-15T08:49:18.504Z,7.60
2018-06-15T08:50:21.857Z,8.30
2018-06-15T08:51:25.306Z,7.53
2018-06-15T08:52:28.645Z,8.80
2018-06-15T08:53:31.938Z,7.08
2018-06-15T08:54:35.173Z,8.60
2018-06-15T08:55:38.472Z,7.80
2018-06-15T08:56:41.746Z,7.67
2018-06-15T08:57:45.102Z,7.78
2018-06-15T08:58:48.384Z,6.95
2018-06-15T08:59:51.666Z,7.83
2018-06-15T09:00:54.921Z,7.17
2018-06-15T09:01:58.210Z,7.58
2018-06-15T09:03:01.727Z,7.10
2018-06-15T09:04:04.992Z,6.95
2018-06-15T09:05:08.273Z,7.03
2018-06-15T09:06:11.513Z,7.10
2018-06-15T09:07:14.806Z,6.12
2018-06-15T09:08:18.095Z,6.25
2018-06-15T09:09:21.357Z,6.00
2018-06-15T09:10:24.605Z,5.72
2018-06-15T09:11:27.936Z,4.70
2018-06-15T09:12:31.231Z,5.85
2018-06-15T09:13:34.790Z,5.25
2018-06-15T09:14:38.041Z,4.65
2018-06-15T09:15:41.489Z,4.60
2018-06-15T09:16:44.749Z,4.20
2018-06-15T09:17:48.077Z,5.03
2018-06-15T09:18:51.327Z,4.90
2018-06-15T09:19:54.633Z,4.75
2018-06-15T09:20:57.944Z,4.80
2018-06-15T09:22:01.237Z,5.95
2018-06-15T09:23:04.492Z,5.50
2018-06-15T09:24:07.788Z,5.60
2018-06-15T09:25:11.088Z,5.90
2018-06-15T09:26:14.367Z,5.58
2018-06-15T09:27:17.624Z,5.40
2018-06-15T09:28:20.889Z,6.35
2018-06-15T09:29:24.214Z,6.05
2018-06-15T09:30:27.515Z,6.65
2018-06-15T09:31:30.969Z,6.25
2018-06-15T09:32:34.233Z,5.30
2018-06-15T09:33:37.511Z,5.72
2018-06-15T09:34:40.846Z,5.37
2018-06-15T09:35:44.132Z,5.20
2018-06-15T09:36:47.407Z,5.53
2018-06-15T09:37:50.888Z,6.00
2018-06-15T09:38:54.133Z,4.70
2018-06-15T09:39:57.494Z,5.20
2018-06-15T09:41:00.766Z,5.53
2018-06-15T09:42:04.060Z,5.37
2018-06-15T09:43:07.365Z,5.75
2018-06-15T09:44:10.644Z,5.50
2018-06-15T09:45:13.924Z,5.05
2018-06-15T09:46:17.206Z,5.62
2018-06-15T09:47:20.505Z,5.65
2018-06-15T09:48:23.811Z,5.30
2018-06-15T09:49:27.062Z,5.50
2018-06-15T09:50:30.289Z,5.45
2018-06-15T09:51:33.599Z,5.75
2018-06-15T09:52:36.967Z,5.92
2018-06-15T09:53:40.274Z,6.05
2018-06-15T09:54:43.569Z,5.65
2018-06-15T09:55:46.798Z,5.62
2018-06-15T09:56:50.121Z,5.60
2018-06-15T09:57:53.444Z,5.10
2018-06-15T09:58:57.287Z,5.95
2018-06-15T10:00:00.565Z,5.60
2018-06-15T10:01:08.468Z,5.45
2018-06-15T10:02:12.045Z,5.63
2018-06-15T10:03:15.362Z,5.45
2018-06-15T10:04:18.634Z,6.05
2018-06-15T10:05:21.907Z,5.42
2018-06-15T10:06:25.163Z,6.00
2018-06-15T10:07:28.442Z,5.33
2018-06-15T10:08:31.791Z,5.97
2018-06-15T10:09:35.053Z,5.83
2018-06-15T10:10:38.368Z,6.47
2018-06-15T10:11:41.676Z,5.95
2018-06-15T10:12:44.930Z,5.40
2018-06-15T10:13:48.291Z,4.83
2018-06-15T10:14:51.578Z,5.53
2018-06-15T10:15:55.141Z,6.05
2018-06-15T10:16:58.470Z,6.67
2018-06-15T10:18:01.733Z,5.42
2018-06-15T10:19:05.157Z,6.40
2018-06-15T10:20:08.559Z,5.62
2018-06-15T10:21:11.826Z,6.10
2018-06-15T10:22:15.107Z,5.40
2018-06-15T10:23:18.860Z,5.58
2018-06-15T10:24:22.176Z,5.28
2018-06-15T10:25:25.520Z,5.40
2018-06-15T10:26:28.776Z,5.50
2018-06-15T10:27:32.151Z,5.28
2018-06-15T10:28:35.389Z,6.25
2018-06-15T10:29:38.695Z,5.83
2018-06-15T10:30:42.076Z,6.17
2018-06-15T10:31:51.844Z,6.28
2018-06-15T10:32:55.165Z,5.90
2018-06-15T10:33:58.476Z,6.72
2018-06-15T10:35:01.809Z,6.03
2018-06-15T10:36:05.048Z,6.78
2018-06-15T10:37:08.341Z,5.70
2018-06-15T10:38:11.636Z,6.15
2018-06-15T10:39:14.989Z,5.78
2018-06-15T10:40:18.263Z,6.70
2018-06-15T10:41:21.502Z,6.65
2018-06-15T10:42:24.775Z,6.47
2018-06-15T10:43:28.136Z,6.83
2018-06-15T10:44:31.441Z,6.20
2018-06-15T10:45:34.871Z,6.17
2018-06-15T10:46:38.150Z,6.00
2018-06-15T10:47:41.514Z,6.77
2018-06-15T10:48:44.834Z,6.42
2018-06-15T10:49:48.163Z,6.65
2018-06-15T10:50:51.505Z,6.50
2018-06-15T10:53:04.360Z,5.83
2018-06-15T10:54:07.722Z,5.70
2018-06-15T10:55:10.990Z,5.67
2018-06-15T10:56:14.356Z,6.10
2018-06-15T10:57:17.621Z,6.50
2018-06-15T10:58:20.896Z,6.40
2018-06-15T10:59:24.187Z,6.67
2018-06-15T11:00:27.501Z,5.63
2018-06-15T11:01:30.725Z,5.20
2018-06-15T11:02:34.000Z,5.70
2018-06-15T11:03:37.295Z,5.63
2018-06-15T11:04:40.617Z,6.00
2018-06-15T11:05:43.925Z,5.20
2018-06-15T11:06:47.216Z,5.87
2018-06-15T11:07:50.484Z,6.00
2018-06-15T11:08:53.881Z,4.97
2018-06-15T11:09:57.167Z,5.20
2018-06-15T11:11:00.450Z,5.77
2018-06-15T11:12:03.753Z,6.30
2018-06-15T11:13:07.023Z,5.93
2018-06-15T11:14:10.328Z,5.77
2018-06-15T11:15:13.636Z,5.43
2018-06-15T11:16:16.961Z,6.20
2018-06-15T11:17:20.394Z,5.67
2018-06-15T11:18:23.679Z,5.80
2018-06-15T11:19:26.993Z,5.60
2018-06-15T11:20:30.269Z,5.70
2018-06-15T11:21:33.651Z,6.03
2018-06-15T11:22:36.984Z,5.17
2018-06-15T11:23:40.321Z,5.70
2018-06-15T11:24:43.577Z,5.60
2018-06-15T11:25:46.888Z,5.50
2018-06-15T11:26:50.193Z,5.10
2018-06-15T11:27:53.540Z,5.37
2018-06-15T11:28:56.866Z,5.47
2018-06-15T11:30:00.198Z,5.50
2018-06-15T11:31:03.549Z,5.23
2018-06-15T11:32:06.886Z,5.10
2018-06-15T11:33:10.181Z,4.93
2018-06-15T11:34:13.413Z,5.50
2018-06-15T11:35:16.705Z,4.80
2018-06-15T11:36:20.008Z,5.10
2018-06-15T11:37:23.294Z,5.50
2018-06-15T11:38:26.577Z,4.17
2018-06-15T11:39:29.914Z,4.20
2018-06-15T11:40:33.191Z,3.90
2018-06-15T11:41:36.685Z,4.10
2018-06-15T11:42:40.006Z,4.20
2018-06-15T11:43:43.311Z,5.00
2018-06-15T11:44:46.630Z,4.63
2018-06-15T11:45:50.008Z,4.70
2018-06-15T11:46:53.419Z,4.30
2018-06-15T11:47:56.733Z,4.40
2018-06-15T11:49:00.067Z,4.50
2018-06-15T11:50:03.395Z,4.90
2018-06-15T11:51:06.750Z,5.00
2018-06-15T11:52:10.059Z,5.40
2018-06-15T11:53:13.345Z,5.20
2018-06-15T11:54:16.593Z,5.70
2018-06-15T11:55:19.927Z,5.60
2018-06-15T11:56:23.165Z,5.87
2018-06-15T11:57:26.616Z,5.73
2018-06-15T11:58:29.854Z,5.40
2018-06-15T11:59:33.159Z,4.73
2018-06-15T12:00:36.497Z,5.03
2018-06-15T12:01:39.828Z,4.67
2018-06-15T12:02:43.156Z,4.77
2018-06-15T12:03:46.429Z,4.60
2018-06-15T12:04:49.707Z,5.10
2018-06-15T12:05:53.111Z,4.97
2018-06-15T12:06:56.457Z,4.80
2018-06-15T12:07:59.793Z,5.10
2018-06-15T12:09:03.173Z,5.10
2018-06-15T12:10:06.427Z,5.23
2018-06-15T12:11:09.727Z,5.20
2018-06-15T12:12:13.075Z,4.60
2018-06-15T12:13:16.303Z,5.37
2018-06-15T12:14:19.618Z,4.90
2018-06-15T12:15:22.918Z,5.60
2018-06-15T12:16:26.246Z,4.53
2018-06-15T12:17:29.592Z,4.70
2018-06-15T12:18:32.868Z,4.70
2018-06-15T12:19:36.350Z,4.80
2018-06-15T12:20:39.633Z,4.33
2018-06-15T12:21:42.944Z,4.37
2018-06-15T12:22:46.403Z,5.03
2018-06-15T12:23:49.728Z,4.60
2018-06-15T12:24:53.041Z,4.50
2018-06-15T12:25:56.377Z,5.00
2018-06-15T12:26:59.660Z,5.30
2018-06-15T12:28:03.351Z,5.27
2018-06-15T12:29:06.637Z,5.40
2018-06-15T12:30:09.956Z,6.20
2018-06-15T12:32:22.864Z,5.17
2018-06-15T12:33:26.236Z,5.23
2018-06-15T12:34:29.491Z,4.70
2018-06-15T12:35:32.918Z,4.20
2018-06-15T12:36:36.182Z,5.53
2018-06-15T12:37:39.476Z,5.20
2018-06-15T12:38:42.764Z,5.13
2018-06-15T12:39:46.021Z,4.50
2018-06-15T12:40:49.372Z,4.77
2018-06-15T12:41:52.839Z,4.80
2018-06-15T12:42:56.109Z,4.80
2018-06-15T12:43:59.452Z,4.73
2018-06-15T12:45:02.759Z,4.13
2018-06-15T12:46:06.212Z,4.83
2018-06-15T12:47:09.361Z,4.40
2018-06-15T12:48:12.644Z,4.23
2018-06-15T12:49:15.866Z,4.60
2018-06-15T12:50:19.151Z,5.10
2018-06-15T12:51:22.844Z,5.07
2018-06-15T12:52:26.410Z,5.43
2018-06-15T12:53:30.088Z,6.37
2018-06-15T12:54:33.716Z,5.67
2018-06-15T12:55:37.861Z,5.33
2018-06-15T12:56:41.507Z,5.27
2018-06-15T12:57:45.132Z,5.03
2018-06-15T12:58:52.741Z,5.57
2018-06-15T12:59:59.837Z,5.70
2018-06-15T13:01:07.566Z,5.57
2018-06-15T13:02:15.491Z,5.80
2018-06-15T13:03:23.177Z,5.73
2018-06-15T13:04:31.098Z,5.70
2018-06-15T13:05:39.607Z,5.10
2018-06-15T13:06:47.232Z,4.90
2018-06-15T13:07:55.436Z,5.53
2018-06-15T13:09:03.183Z,4.50
2018-06-15T13:10:10.967Z,6.03
2018-06-15T13:11:19.265Z,4.70
2018-06-15T13:12:26.208Z,6.10
2018-06-15T13:13:34.949Z,6.13
2018-06-15T13:14:43.014Z,6.10
2018-06-15T13:15:51.110Z,5.10
2018-06-15T13:17:00.540Z,5.13
2018-06-15T13:18:08.745Z,4.40
2018-06-15T13:19:16.130Z,5.33
2018-06-15T13:20:23.203Z,5.00
2018-06-15T13:21:31.492Z,5.70
2018-06-15T13:22:39.482Z,5.47
2018-06-15T13:23:46.895Z,5.20
2018-06-15T13:24:54.754Z,6.13
2018-06-15T13:26:02.440Z,5.70
2018-06-15T13:27:10.126Z,5.60
2018-06-15T13:28:18.222Z,6.10
2018-06-15T13:29:25.204Z,6.03
2018-06-15T13:30:32.776Z,5.53
2018-06-15T13:31:40.777Z,6.37
2018-06-15T13:32:48.049Z,6.00
2018-06-15T13:33:56.156Z,5.63
2018-06-15T13:35:03.773Z,6.30
2018-06-15T13:36:12.145Z,6.40
2018-06-15T13:37:19.513Z,5.60
2018-06-15T13:38:27.918Z,5.87
2018-06-15T13:39:35.050Z,5.83
2018-06-15T13:40:43.085Z,5.53
2018-06-15T13:41:50.464Z,5.83
2018-06-15T13:42:58.291Z,5.97
2018-06-15T13:44:05.678Z,5.50
2018-06-15T13:45:13.012Z,6.10
2018-06-15T13:46:21.326Z,5.60
2018-06-15T13:47:29.421Z,6.00
2018-06-15T13:48:37.709Z,5.53
2018-06-15T13:49:45.716Z,6.00
2018-06-15T13:50:53.609Z,6.07
2018-06-15T13:52:01.396Z,5.70
2018-06-15T13:53:08.354Z,5.80
2018-06-15T13:54:16.108Z,5.37
2018-06-15T13:55:25.280Z,6.33
2018-06-15T13:56:33.872Z,6.10
2018-06-15T13:57:42.095Z,5.43